Time;durP1;ratioP1;P1;durP2;ratioP2;P2;SDS_P1;SDS_P2;PMS_P1;PMS_P2;Temp;Humidity;BMP_temperature;BMP_pressure;BME280_temperature;BME280_humidity;BME280_pressure;Samples;Min_cycle;Max_cycle;Signal;HPM_P1;HPM_P2
2022/06/26 00:02:20;;;;;;;9.02;8.38;;;;;;;19.01;87.26;100861.41;4976931;28;20084;-87
2022/06/26 00:04:46;;;;;;;10.85;9.90;;;;;;;19.01;86.96;100855.25;4976771;28;20019;-87
2022/06/26 00:07:15;;;;;;;9.15;8.55;;;;;;;18.98;87.79;100855.38;4976817;28;20030;-87
2022/06/26 00:09:41;;;;;;;9.60;8.90;;;;;;;18.96;87.37;100851.97;4976680;28;20025;-87
2022/06/26 00:12:07;;;;;;;9.40;8.70;;;;;;;18.94;88.15;100857.34;4976651;28;20050;-87
2022/06/26 00:14:33;;;;;;;10.13;9.43;;;;;;;18.90;88.56;100850.50;4976874;28;20018;-87
2022/06/26 00:16:58;;;;;;;9.90;9.07;;;;;;;18.90;88.63;100855.78;4993013;28;20109;-87
2022/06/26 00:19:24;;;;;;;9.55;8.88;;;;;;;18.88;88.02;100847.06;4976464;28;20026;-87
2022/06/26 00:21:50;;;;;;;9.65;8.85;;;;;;;18.85;88.38;100850.66;4992821;28;20022;-87
2022/06/26 00:24:16;;;;;;;9.02;8.43;;;;;;;18.85;88.14;100849.81;4976692;28;20037;-87
2022/06/26 00:26:42;;;;;;;9.38;8.88;;;;;;;18.82;88.97;100842.88;4992571;28;20026;-87
2022/06/26 00:29:07;;;;;;;9.38;8.60;;;;;;;18.81;89.01;100842.97;4976079;28;20037;-87
2022/06/26 00:31:32;;;;;;;9.23;8.63;;;;;;;18.80;89.52;100843.88;4992632;28;20384;-87
2022/06/26 00:33:58;;;;;;;9.20;8.55;;;;;;;18.78;89.01;100835.19;4976494;28;20062;-87
2022/06/26 00:36:23;;;;;;;10.02;9.32;;;;;;;18.77;89.13;100836.94;4976337;28;20030;-87
2022/06/26 00:38:49;;;;;;;9.07;8.48;;;;;;;18.78;89.29;100837.81;4975975;28;20022;-87
2022/06/26 00:41:14;;;;;;;8.93;8.45;;;;;;;18.75;89.67;100837.03;4975887;28;20373;-87
2022/06/26 00:43:40;;;;;;;9.45;8.98;;;;;;;18.75;89.66;100837.03;4976204;28;20100;-87
2022/06/26 00:46:05;;;;;;;9.90;9.00;;;;;;;18.74;90.51;100835.31;4975985;28;20437;-87
2022/06/26 00:48:31;;;;;;;10.20;9.50;;;;;;;18.74;90.89;100843.25;4976042;28;20177;-87
2022/06/26 00:50:56;;;;;;;10.65;9.85;;;;;;;18.75;91.42;100844.13;4975979;28;20023;-87
2022/06/26 00:53:22;;;;;;;9.73;9.13;;;;;;;18.76;90.84;100837.91;4975933;28;20121;-87
2022/06/26 00:55:47;;;;;;;11.05;10.25;;;;;;;18.77;91.31;100841.41;4975845;28;20030;-87
2022/06/26 00:58:13;;;;;;;10.70;9.85;;;;;;;18.78;91.98;100835.19;4975920;28;20038;-87
2022/06/26 01:00:38;;;;;;;10.35;9.68;;;;;;;18.77;92.10;100836.09;4975652;28;20026;-87
2022/06/26 01:03:04;;;;;;;10.68;9.90;;;;;;;18.79;91.05;100836.88;4992157;28;20022;-87
2022/06/26 01:05:29;;;;;;;11.45;10.57;;;;;;;18.78;91.34;100837.81;4975774;28;20030;-87
2022/06/26 01:07:55;;;;;;;10.30;9.70;;;;;;;18.78;92.50;100838.66;4975587;28;20081;-87
2022/06/26 01:10:21;;;;;;;11.15;10.45;;;;;;;18.77;92.05;100836.94;4975676;28;20026;-87
2022/06/26 01:12:46;;;;;;;10.68;9.95;;;;;;;18.77;91.89;100830.81;4975754;28;20443;-87
2022/06/26 01:15:12;;;;;;;10.07;9.48;;;;;;;18.77;91.01;100833.47;4975791;28;20023;-87
2022/06/26 01:17:38;;;;;;;10.77;10.07;;;;;;;18.75;90.92;100837.03;4975129;28;20058;-87
2022/06/26 01:20:05;;;;;;;10.75;10.13;;;;;;;18.77;92.10;100846.69;4975316;28;20395;-87
2022/06/26 01:22:31;;;;;;;10.82;10.00;;;;;;;18.74;91.89;100845.03;4975588;28;20029;-87
2022/06/26 01:24:56;;;;;;;11.80;10.90;;;;;;;18.74;92.88;100847.69;4975430;28;20030;-87
2022/06/26 01:27:22;;;;;;;11.02;10.27;;;;;;;18.72;93.28;100844.28;4975447;28;20049;-87
2022/06/26 01:29:47;;;;;;;10.60;10.00;;;;;;;18.72;92.91;100853.06;4975323;28;20400;-87
2022/06/26 01:32:13;;;;;;;10.73;9.88;;;;;;;18.72;92.66;100847.78;4975578;28;20022;-87
2022/06/26 01:34:39;;;;;;;11.30;10.50;;;;;;;18.72;93.56;100855.72;4975342;28;20451;-87
2022/06/26 01:37:04;;;;;;;10.65;10.05;;;;;;;18.72;92.71;100854.84;4975299;28;20045;-87
2022/06/26 01:39:29;;;;;;;11.13;10.18;;;;;;;18.69;92.67;100850.56;4975170;28;20022;-86
2022/06/26 01:41:55;;;;;;;10.38;9.68;;;;;;;18.69;92.51;100845.28;4991922;28;20084;-86
2022/06/26 01:44:20;;;;;;;9.93;9.23;;;;;;;18.69;91.67;100847.91;4975360;28;20027;-86
2022/06/26 01:46:46;;;;;;;9.90;9.23;;;;;;;18.69;91.89;100850.56;4975327;28;20060;-86
2022/06/26 01:49:11;;;;;;;10.10;9.40;;;;;;;18.68;91.67;100851.50;4991475;28;20026;-86
2022/06/26 01:51:37;;;;;;;10.00;9.35;;;;;;;18.68;91.95;100854.13;4975221;28;20029;-87
2022/06/26 01:54:03;;;;;;;9.68;9.18;;;;;;;18.68;91.27;100854.13;4991353;28;20026;-86
2022/06/26 01:56:28;;;;;;;10.32;9.57;;;;;;;18.66;91.21;100863.91;4975287;28;20030;-87
2022/06/26 01:58:53;;;;;;;9.52;8.98;;;;;;;18.65;91.25;100848.13;4975206;28;20069;-87
2022/06/26 02:01:19;;;;;;;10.02;9.43;;;;;;;18.63;92.37;100856.13;4975198;28;20455;-87
2022/06/26 02:03:44;;;;;;;10.27;9.60;;;;;;;18.63;92.20;100850.00;4975038;28;20037;-87
2022/06/26 02:06:10;;;;;;;10.75;10.05;;;;;;;18.60;92.34;100845.72;4975219;28;20485;-87
2022/06/26 02:08:36;;;;;;;11.63;10.25;;;;;;;18.59;92.21;100843.97;4975079;28;20033;-86
2022/06/26 02:13:46;;;;;;;10.40;9.48;;;;;;;18.57;91.56;100846.72;4991585;28;20038;-87
2022/06/26 02:16:18;;;;;;;10.02;9.48;;;;;;;18.55;92.23;100843.25;4975203;28;20093;-87
2022/06/26 02:18:45;;;;;;;9.52;8.98;;;;;;;18.54;92.61;100845.97;4975057;28;20038;-87
2022/06/26 02:21:13;;;;;;;10.52;9.73;;;;;;;18.53;91.85;100844.28;4974941;28;20029;-87
2022/06/26 02:23:39;;;;;;;10.75;10.00;;;;;;;18.51;91.04;100836.41;4974874;28;20027;-86
2022/06/26 02:26:07;;;;;;;9.52;9.02;;;;;;;18.50;91.18;100844.41;4975094;28;20030;-87
2022/06/26 02:28:33;;;;;;;11.20;10.50;;;;;;;18.48;91.51;100841.00;4974630;28;20554;-87
2022/06/26 02:30:59;;;;;;;10.00;9.40;;;;;;;18.45;92.74;100835.84;4978022;28;20036;-87
2022/06/26 02:33:24;;;;;;;11.57;10.68;;;;;;;18.45;93.65;100841.13;4978650;28;20026;-86
2022/06/26 02:35:50;;;;;;;11.77;10.88;;;;;;;18.44;92.81;100842.91;4994736;28;20022;-86
2022/06/26 02:38:16;;;;;;;10.77;10.15;;;;;;;18.41;92.00;100843.91;4978443;28;20045;-86
2022/06/26 02:40:43;;;;;;;11.25;10.45;;;;;;;18.41;93.14;100846.56;4978126;28;20060;-86
2022/06/26 02:43:09;;;;;;;11.52;10.70;;;;;;;18.40;92.54;100850.13;4978578;28;20030;-86
2022/06/26 02:45:35;;;;;;;11.25;10.35;;;;;;;18.38;92.50;100840.56;4978186;28;20064;-86
2022/06/26 02:48:00;;;;;;;10.75;10.05;;;;;;;18.36;92.58;100845.91;4978123;28;20024;-86
2022/06/26 02:50:26;;;;;;;11.13;10.30;;;;;;;18.34;91.88;100845.13;4978388;28;20395;-87
2022/06/26 02:52:52;;;;;;;10.57;9.98;;;;;;;18.33;92.15;100854.00;4994538;28;20109;-87
2022/06/26 02:55:18;;;;;;;11.48;10.70;;;;;;;18.31;91.86;100850.56;4994414;28;20563;-87
2022/06/26 02:57:43;;;;;;;10.98;10.13;;;;;;;18.29;91.55;100851.56;4978040;28;20026;-86
2022/06/26 03:00:11;;;;;;;10.95;10.25;;;;;;;18.27;91.54;100861.34;4978040;28;20014;-87
2022/06/26 03:02:36;;;;;;;10.23;9.73;;;;;;;18.23;91.95;100858.84;4978192;28;20026;-87
2022/06/26 03:05:02;;;;;;;11.30;10.60;;;;;;;18.21;91.02;100865.13;4977898;28;20029;-87
2022/06/26 03:07:27;;;;;;;9.98;9.38;;;;;;;18.20;91.45;100858.13;4978530;28;20028;-86
2022/06/26 03:09:53;;;;;;;11.57;10.77;;;;;;;18.17;92.49;100858.28;4977531;28;20412;-87
2022/06/26 03:12:18;;;;;;;11.70;10.98;;;;;;;18.18;93.10;100865.28;4977864;28;20030;-87
2022/06/26 03:14:43;;;;;;;11.40;10.70;;;;;;;18.17;94.18;100858.28;4977730;28;20029;-87
2022/06/26 03:17:09;;;;;;;11.98;11.07;;;;;;;18.16;94.12;100856.53;4977791;28;20427;-87
2022/06/26 03:19:34;;;;;;;11.52;10.63;;;;;;;18.15;93.20;100862.78;4977514;28;20085;-87
2022/06/26 03:22:00;;;;;;;11.27;10.57;;;;;;;18.14;93.32;100858.41;4977680;28;20026;-87
2022/06/26 03:24:25;;;;;;;11.65;10.85;;;;;;;18.13;92.57;100859.34;4977476;28;20022;-87
2022/06/26 03:26:51;;;;;;;11.25;10.45;;;;;;;18.11;91.53;100854.13;4977552;28;20062;-87
2022/06/26 03:29:16;;;;;;;10.93;10.25;;;;;;;18.08;93.16;100855.13;4993376;28;20022;-87
2022/06/26 03:31:42;;;;;;;12.18;11.38;;;;;;;18.07;93.03;100858.69;4977406;28;20037;-87
2022/06/26 03:34:07;;;;;;;11.55;10.85;;;;;;;18.06;92.09;100854.34;4977563;28;20105;-87
2022/06/26 03:36:33;;;;;;;11.68;10.80;;;;;;;18.04;93.08;100861.47;4977537;28;20049;-87
2022/06/26 03:39:00;;;;;;;12.68;11.88;;;;;;;18.04;94.48;100856.19;4977333;28;20033;-87
2022/06/26 03:41:26;;;;;;;12.77;11.88;;;;;;;18.04;94.96;100858.81;4976447;28;20022;-87
2022/06/26 03:43:51;;;;;;;12.55;11.80;;;;;;;18.06;95.19;100856.13;4977162;28;20031;-87
2022/06/26 03:46:17;;;;;;;12.63;11.82;;;;;;;18.03;95.58;100857.09;4977345;28;20116;-87
2022/06/26 03:48:43;;;;;;;12.90;12.02;;;;;;;18.05;95.72;100854.38;4977332;28;20380;-87
2022/06/26 03:51:08;;;;;;;13.43;12.45;;;;;;;18.04;96.04;100853.53;4977176;28;20627;-87
2022/06/26 03:53:35;;;;;;;13.13;12.23;;;;;;;18.04;96.85;100853.53;4977134;28;20492;-87
2022/06/26 03:56:01;;;;;;;13.10;12.23;;;;;;;18.04;96.86;100863.28;4976990;28;20034;-87
2022/06/26 03:58:27;;;;;;;13.25;12.43;;;;;;;18.04;96.54;100864.13;4977006;28;20030;-87
2022/06/26 04:00:53;;;;;;;14.05;13.05;;;;;;;18.05;96.02;100859.66;4993232;28;20028;-87
2022/06/26 04:03:18;;;;;;;12.70;11.80;;;;;;;18.06;95.44;100859.63;4976941;28;20156;-87
2022/06/26 04:05:44;;;;;;;12.60;11.70;;;;;;;18.06;94.42;100866.69;4976808;28;20085;-87
2022/06/26 04:08:09;;;;;;;13.48;12.57;;;;;;;18.07;94.51;100871.06;4977019;28;20503;-87
2022/06/26 04:10:35;;;;;;;13.00;12.15;;;;;;;18.07;95.03;100874.53;4977133;28;20022;-87
2022/06/26 04:13:03;;;;;;;13.75;12.75;;;;;;;18.08;96.00;100870.13;4976940;28;20035;-87
2022/06/26 04:15:30;;;;;;;12.82;11.98;;;;;;;18.10;96.20;100864.78;4976698;28;20034;-87
2022/06/26 04:17:56;;;;;;;13.20;12.30;;;;;;;18.10;94.53;100862.13;4976469;28;20018;-86
2022/06/26 04:20:22;;;;;;;12.85;11.85;;;;;;;18.11;95.24;100863.84;4976317;28;20049;-87
2022/06/26 04:23:02;;;;;;;13.98;12.88;;;;;;;18.11;95.83;100859.41;4976455;28;20033;-86
2022/06/26 04:25:28;;;;;;;12.70;11.75;;;;;;;18.11;95.65;100851.47;4976484;28;20022;-87
2022/06/26 04:27:54;;;;;;;13.07;12.02;;;;;;;18.12;96.81;100854.97;4976296;28;20388;-85
2022/06/26 04:30:20;;;;;;;12.63;11.82;;;;;;;18.13;96.19;100857.53;4976045;28;20030;-85
2022/06/26 04:32:45;;;;;;;12.80;11.80;;;;;;;18.14;95.92;100858.41;4976734;28;20503;-85
2022/06/26 04:35:11;;;;;;;12.48;11.60;;;;;;;18.14;95.18;100856.63;4992863;28;20023;-86
2022/06/26 04:37:37;;;;;;;12.13;11.43;;;;;;;18.15;94.85;100860.16;4992650;28;20515;-85
2022/06/26 04:40:07;;;;;;;11.77;10.77;;;;;;;18.14;93.62;100859.25;4992473;28;20022;-86
2022/06/26 04:42:32;;;;;;;12.05;11.15;;;;;;;18.14;94.76;100859.25;4976100;28;20037;-86
2022/06/26 04:44:57;;;;;;;12.07;11.27;;;;;;;18.15;95.34;100861.00;4975818;28;20053;-86
2022/06/26 04:47:23;;;;;;;13.70;12.75;;;;;;;18.16;96.93;100861.84;4975995;28;20026;-86
2022/06/26 04:49:48;;;;;;;12.07;11.30;;;;;;;18.17;97.07;100868.84;4975951;28;20089;-86
2022/06/26 04:52:15;;;;;;;12.75;11.95;;;;;;;18.19;96.89;100869.66;4992415;28;20025;-86
2022/06/26 04:54:41;;;;;;;12.93;11.93;;;;;;;18.21;96.60;100870.41;4992243;28;20026;-86
2022/06/26 04:57:07;;;;;;;12.27;11.48;;;;;;;18.22;96.80;100867.69;4975969;28;20555;-85
2022/06/26 04:59:32;;;;;;;11.10;10.40;;;;;;;18.24;95.79;100868.50;4975832;28;20026;-86
2022/06/26 05:01:57;;;;;;;11.25;10.65;;;;;;;18.27;95.59;100872.81;4992300;28;20034;-85
2022/06/26 05:04:23;;;;;;;11.55;10.75;;;;;;;18.29;95.63;100872.72;4975881;28;20089;-85
2022/06/26 05:06:48;;;;;;;11.40;10.80;;;;;;;18.31;95.69;100871.72;4976093;28;20037;-86
2022/06/26 05:09:14;;;;;;;12.20;11.43;;;;;;;18.33;95.98;100874.31;4992397;28;20464;-85
2022/06/26 05:11:41;;;;;;;11.07;10.38;;;;;;;18.36;96.51;100869.72;4975679;28;20053;-88
2022/06/26 05:14:07;;;;;;;11.55;10.75;;;;;;;18.40;95.98;100875.72;4976484;28;20027;-87
2022/06/26 05:16:32;;;;;;;11.07;10.38;;;;;;;18.43;95.59;100870.28;4992825;28;20531;-87
2022/06/26 05:18:58;;;;;;;11.05;10.38;;;;;;;18.47;95.34;100876.31;4976479;28;20061;-88
2022/06/26 05:21:24;;;;;;;10.80;9.95;;;;;;;18.51;96.02;100869.94;4975944;28;20030;-87
2022/06/26 05:23:49;;;;;;;10.65;10.05;;;;;;;18.54;95.25;100867.16;4976312;28;20033;-87
2022/06/26 05:26:14;;;;;;;10.70;9.93;;;;;;;18.58;95.80;100868.72;4976111;28;20393;-87
2022/06/26 05:28:40;;;;;;;9.88;9.27;;;;;;;18.62;95.69;100875.56;4975728;28;20030;-87
2022/06/26 05:31:08;;;;;;;10.13;9.52;;;;;;;18.67;95.02;100875.38;4975806;28;20431;-87
2022/06/26 05:33:34;;;;;;;9.48;8.88;;;;;;;18.72;95.05;100881.31;4992721;28;20404;-87
2022/06/26 05:35:59;;;;;;;10.10;9.50;;;;;;;18.76;95.45;100874.94;4976005;28;20032;-87
2022/06/26 05:38:24;;;;;;;9.23;8.45;;;;;;;18.80;95.47;100879.16;4975084;28;20030;-87
2022/06/26 05:40:50;;;;;;;9.68;9.18;;;;;;;18.85;94.82;100876.28;4974987;28;20053;-87
2022/06/26 05:43:15;;;;;;;9.55;8.95;;;;;;;18.88;95.09;100874.38;4974899;28;20026;-87
2022/06/26 05:45:41;;;;;;;9.88;9.20;;;;;;;18.93;94.86;100879.44;4975289;28;20061;-87
2022/06/26 05:48:07;;;;;;;10.48;9.73;;;;;;;18.97;94.61;100873.06;4975271;28;20085;-87
2022/06/26 05:50:32;;;;;;;10.25;9.43;;;;;;;19.01;94.24;100872.00;4991201;28;20532;-87
2022/06/26 05:52:58;;;;;;;9.88;9.27;;;;;;;19.04;94.08;100871.84;4991512;28;20030;-87
2022/06/26 05:55:23;;;;;;;9.45;8.75;;;;;;;19.07;93.38;100871.72;4975040;28;20037;-87
2022/06/26 05:57:49;;;;;;;9.00;8.40;;;;;;;19.08;93.66;100873.41;4975223;28;20488;-87
2022/06/26 06:00:14;;;;;;;9.98;9.32;;;;;;;19.09;93.51;100874.28;4974773;28;20090;-87
2022/06/26 06:02:40;;;;;;;9.07;8.57;;;;;;;19.09;93.46;100874.28;4975036;28;20038;-87
2022/06/26 06:05:06;;;;;;;9.15;8.65;;;;;;;19.08;94.12;100878.69;4977382;28;20113;-87
2022/06/26 06:07:36;;;;;;;8.65;8.25;;;;;;;19.07;94.62;100877.00;4979347;28;20153;-87
2022/06/26 06:10:03;;;;;;;8.95;8.25;;;;;;;19.07;94.31;100881.41;4979203;28;20026;-87
2022/06/26 06:12:29;;;;;;;9.07;8.57;;;;;;;19.07;94.60;100882.28;4979521;28;20034;-87
2022/06/26 06:14:54;;;;;;;8.63;8.18;;;;;;;19.09;94.62;100895.44;4995907;28;20388;-87
2022/06/26 06:17:40;;;;;;;8.57;7.97;;;;;;;19.11;94.67;100896.22;4995836;28;20033;-86
2022/06/26 06:20:18;;;;;;;8.68;8.20;;;;;;;19.15;94.74;100892.50;4982176;28;20022;-87
2022/06/26 06:22:54;;;;;;;9.43;8.80;;;;;;;19.21;94.58;100897.50;4979936;28;20023;-86
2022/06/26 06:25:21;;;;;;;8.98;8.48;;;;;;;19.28;94.58;100900.69;4979753;28;20022;-88
2022/06/26 06:27:47;;;;;;;9.20;8.70;;;;;;;19.38;93.97;100901.94;4995809;28;20598;-88
2022/06/26 06:30:14;;;;;;;9.98;9.38;;;;;;;19.46;93.39;100898.06;4979259;28;20367;-88
2022/06/26 06:32:41;;;;;;;10.30;9.65;;;;;;;19.53;93.05;100902.13;4979513;28;20026;-88
2022/06/26 06:35:08;;;;;;;11.55;10.85;;;;;;;19.58;92.62;100902.75;4979123;28;20022;-88
2022/06/26 06:37:33;;;;;;;10.85;9.98;;;;;;;19.62;92.14;100904.31;4979127;28;20037;-87
2022/06/26 06:39:59;;;;;;;10.45;9.57;;;;;;;19.66;92.03;100905.88;4979377;28;20026;-87
2022/06/26 06:42:24;;;;;;;10.82;10.13;;;;;;;19.68;91.03;100898.69;4979191;28;20473;-88
2022/06/26 06:44:50;;;;;;;10.63;9.93;;;;;;;19.70;91.77;100910.06;4978625;28;20037;-88
2022/06/26 06:47:16;;;;;;;10.05;9.45;;;;;;;19.72;91.70;100913.47;4978917;28;20544;-87
2022/06/26 06:49:41;;;;;;;10.07;9.45;;;;;;;19.70;91.32;100912.72;4978999;28;20030;-86
2022/06/26 06:52:07;;;;;;;10.38;9.57;;;;;;;19.69;90.46;100918.94;4995567;28;20022;-86
2022/06/26 06:54:33;;;;;;;10.40;9.65;;;;;;;19.71;90.42;100909.13;4978968;28;20456;-86
2022/06/26 06:56:58;;;;;;;10.20;9.55;;;;;;;19.71;90.41;100914.41;4978764;28;20053;-84
2022/06/26 06:59:24;;;;;;;9.40;8.80;;;;;;;19.73;91.04;100923.16;4979589;28;20084;-85
2022/06/26 07:01:50;;;;;;;9.85;9.23;;;;;;;19.74;90.93;100927.53;4978813;28;20037;-85
2022/06/26 07:04:16;;;;;;;9.95;9.43;;;;;;;19.75;91.54;100931.88;4978534;28;20038;-84
2022/06/26 07:06:41;;;;;;;10.20;9.40;;;;;;;19.77;91.06;100929.16;4979068;28;20022;-88
2022/06/26 07:09:07;;;;;;;10.35;9.65;;;;;;;19.80;90.96;100934.34;4978338;28;20026;-91
2022/06/26 07:11:32;;;;;;;10.68;9.98;;;;;;;19.82;90.86;100937.75;4978649;28;20036;-91
2022/06/26 07:13:58;;;;;;;11.27;10.48;;;;;;;19.86;90.61;100933.16;4978663;28;20046;-91
2022/06/26 07:16:24;;;;;;;9.68;9.05;;;;;;;19.90;90.74;100929.41;4977057;28;20050;-87
2022/06/26 07:18:49;;;;;;;9.68;9.07;;;;;;;19.96;90.18;100933.53;4978105;28;20030;-86
2022/06/26 07:21:14;;;;;;;9.93;9.23;;;;;;;20.03;89.85;100940.25;4993923;28;20498;-86
2022/06/26 07:23:40;;;;;;;10.05;9.45;;;;;;;20.08;90.36;100943.50;5010825;28;20034;-87
2022/06/26 07:26:05;;;;;;;9.13;8.60;;;;;;;20.16;89.59;100938.66;4977998;28;20065;-86
2022/06/26 07:28:31;;;;;;;10.20;9.20;;;;;;;20.24;88.53;100938.25;4977880;28;20029;-86
2022/06/26 07:30:56;;;;;;;8.77;8.23;;;;;;;20.34;86.26;100938.63;4977554;28;20030;-86
2022/06/26 07:36:05;;;;;;;7.30;6.90;;;;;;;20.56;84.61;100938.31;4994407;28;20611;-87
2022/06/26 07:38:31;;;;;;;7.47;7.03;;;;;;;20.65;84.15;100940.47;4977769;28;20030;-88
2022/06/26 07:40:58;;;;;;;6.63;6.32;;;;;;;20.72;83.39;100944.56;4994054;28;20113;-87
2022/06/26 07:43:23;;;;;;;6.65;6.35;;;;;;;20.78;83.46;100938.06;4977641;28;20484;-88
2022/06/26 07:45:49;;;;;;;5.70;5.40;;;;;;;20.81;81.17;100937.88;4978171;28;20034;-88
2022/06/26 07:48:15;;;;;;;5.50;5.20;;;;;;;20.89;78.74;100946.25;4977461;28;20117;-84
2022/06/26 07:50:40;;;;;;;7.88;4.53;;;;;;;21.05;75.39;100948.94;4977247;28;20030;-87
2022/06/26 07:53:06;;;;;;;4.10;3.90;;;;;;;21.18;73.85;100940.25;4977536;28;20045;-86
2022/06/26 07:55:31;;;;;;;3.90;3.70;;;;;;;21.30;73.24;100944.00;4993788;28;20027;-86
2022/06/26 07:57:57;;;;;;;3.40;3.20;;;;;;;21.36;68.60;100947.16;4977317;28;20105;-86
2022/06/26 08:00:23;;;;;;;2.60;2.50;;;;;;;21.52;66.56;100955.09;4976786;28;20029;-85
2022/06/26 08:02:49;;;;;;;2.75;2.60;;;;;;;21.60;65.30;100952.88;4993160;28;20030;-86
2022/06/26 08:05:14;;;;;;;2.65;2.55;;;;;;;21.68;65.84;100955.09;4992947;28;20034;-86
2022/06/26 08:07:39;;;;;;;2.60;2.42;;;;;;;21.71;68.06;100957.56;4976699;28;20061;-86
2022/06/26 08:10:06;;;;;;;4.25;2.80;;;;;;;21.76;65.20;100966.16;4992769;28;20370;-86
2022/06/26 08:12:31;;;;;;;2.67;2.58;;;;;;;21.81;65.17;100959.69;4993132;28;20033;-85
2022/06/26 08:14:56;;;;;;;2.50;2.40;;;;;;;21.89;63.88;100984.88;4976813;28;20018;-86
2022/06/26 08:17:22;;;;;;;2.72;2.60;;;;;;;21.98;62.97;100967.53;4992882;28;20026;-86
2022/06/26 08:19:48;;;;;;;2.30;2.10;;;;;;;22.00;63.25;100976.25;4992552;28;20030;-86
2022/06/26 08:22:14;;;;;;;2.10;2.00;;;;;;;22.04;62.55;100980.44;4992771;28;20030;-86
2022/06/26 08:24:41;;;;;;;2.17;2.08;;;;;;;22.13;62.18;100976.41;4976444;28;20451;-86
2022/06/26 08:27:07;;;;;;;2.13;2.03;;;;;;;22.22;60.59;100985.59;4976448;28;20544;-85
2022/06/26 08:29:33;;;;;;;2.17;2.08;;;;;;;22.31;59.61;100971.75;4976572;28;20392;-86
2022/06/26 08:31:58;;;;;;;1.95;1.85;;;;;;;22.38;60.23;100970.44;4976213;28;20022;-86
2022/06/26 08:34:24;;;;;;;2.47;2.38;;;;;;;22.44;60.66;100970.09;4992564;28;20527;-85
2022/06/26 08:36:50;;;;;;;2.47;2.30;;;;;;;22.45;59.59;100974.47;4976250;28;20026;-86
2022/06/26 08:39:15;;;;;;;2.33;2.22;;;;;;;22.48;60.70;100975.19;4976138;28;20062;-86
2022/06/26 08:41:45;;;;;;;2.78;2.10;;;;;;;22.49;61.22;100982.25;4976055;28;20018;-86
2022/06/26 08:44:11;;;;;;;2.20;2.10;;;;;;;22.51;60.92;100983.88;4976091;28;20029;-85
2022/06/26 08:46:38;;;;;;;2.88;2.13;;;;;;;22.55;61.17;100990.72;4976014;28;20026;-86
2022/06/26 08:49:08;;;;;;;2.40;2.30;;;;;;;22.57;61.92;100977.31;4992335;28;20076;-86
2022/06/26 08:51:36;;;;;;;3.17;2.95;;;;;;;22.59;62.36;100978.91;4991789;28;20080;-85
2022/06/26 08:54:02;;;;;;;2.75;2.65;;;;;;;22.61;61.66;100984.16;4975834;28;20403;-86
2022/06/26 08:56:28;;;;;;;4.88;2.70;;;;;;;22.64;62.42;100985.75;4992004;28;20099;-85
2022/06/26 08:58:54;;;;;;;3.03;2.83;;;;;;;22.64;63.65;100986.59;4975910;28;20543;-86
2022/06/26 09:01:20;;;;;;;3.95;3.10;;;;;;;22.65;63.00;100993.66;4975720;28;20026;-86
2022/06/26 09:03:45;;;;;;;2.92;2.83;;;;;;;22.68;61.12;100988.13;4975973;28;20028;-86
2022/06/26 09:06:10;;;;;;;3.10;2.95;;;;;;;22.69;60.82;100986.34;4991784;28;20034;-86
2022/06/26 09:08:43;;;;;;;3.05;2.85;;;;;;;22.72;60.98;100984.31;5008287;28;20114;-86
2022/06/26 09:11:09;;;;;;;2.55;2.45;;;;;;;22.75;62.77;100994.75;4975462;28;20092;-86
2022/06/26 09:13:40;;;;;;;2.88;2.67;;;;;;;22.77;63.57;100998.19;4991929;28;20038;-86
2022/06/26 09:16:06;;;;;;;3.13;2.92;;;;;;;22.77;62.11;100992.88;4975824;28;20034;-86
2022/06/26 09:18:39;;;;;;;3.40;3.20;;;;;;;22.77;63.72;100992.88;4991654;28;20097;-85
2022/06/26 09:21:05;;;;;;;2.67;2.47;;;;;;;22.82;60.50;100999.72;4991834;28;20392;-85
2022/06/26 09:23:36;;;;;;;2.40;2.30;;;;;;;22.85;60.78;100999.53;4975483;28;20392;-85
2022/06/26 09:26:03;;;;;;;2.58;2.47;;;;;;;22.89;60.81;100996.59;4975877;28;20554;-85
2022/06/26 09:28:29;;;;;;;2.70;2.60;;;;;;;22.96;61.45;101002.38;4975309;28;20510;-85
2022/06/26 09:31:04;;;;;;;3.80;2.45;;;;;;;23.05;61.25;101012.41;4975627;28;20018;-85
2022/06/26 09:33:35;;;;;;;3.03;2.72;;;;;;;23.12;60.01;101019.13;4975623;28;20037;-85
2022/06/26 09:36:03;;;;;;;2.92;2.80;;;;;;;23.23;60.36;101017.56;4975512;28;20026;-86
2022/06/26 09:38:31;;;;;;;2.72;2.63;;;;;;;23.30;60.27;101013.53;4991496;28;20031;-85
2022/06/26 09:41:05;;;;;;;2.88;2.78;;;;;;;23.35;59.82;101019.44;4991062;28;20397;-85
2022/06/26 09:43:34;;;;;;;4.22;3.25;;;;;;;23.41;59.81;101024.38;4975322;28;20555;-85
2022/06/26 09:46:02;;;;;;;2.90;2.80;;;;;;;23.47;61.43;101023.09;4991574;28;20060;-84
2022/06/26 09:48:28;;;;;;;2.78;2.58;;;;;;;23.52;61.59;101015.66;4975097;28;20116;-83
2022/06/26 09:50:54;;;;;;;2.92;2.83;;;;;;;23.56;61.68;101011.84;4965088;28;20477;-85
2022/06/26 09:53:21;;;;;;;3.30;3.10;;;;;;;23.64;61.39;101024.66;4968446;28;20089;-85
2022/06/26 09:55:48;;;;;;;2.97;2.78;;;;;;;23.65;59.41;101026.38;4974992;28;20369;-85
2022/06/26 09:58:14;;;;;;;3.13;2.92;;;;;;;23.65;59.30;101026.38;4975181;28;20030;-85
2022/06/26 10:00:40;;;;;;;3.08;2.95;;;;;;;23.62;58.91;101023.91;4974922;28;20030;-85
2022/06/26 10:08:36;;;;;;;3.33;2.88;;;;;;;23.53;60.39;101033.38;4991668;28;20045;-84
2022/06/26 10:11:03;;;;;;;2.15;2.05;;;;;;;23.52;59.14;101037.00;4991148;28;20388;-85
2022/06/26 10:13:30;;;;;;;2.45;1.77;;;;;;;23.57;57.90;101048.22;4974949;28;20026;-85
2022/06/26 10:16:14;;;;;;;1.60;1.50;;;;;;;23.58;57.12;101041.06;4991518;28;20548;-86
2022/06/26 10:19:05;;;;;;;1.88;1.27;;;;;;;23.62;56.12;101037.25;4989805;28;20096;-85
2022/06/26 10:21:40;;;;;;;1.75;1.65;;;;;;;23.66;55.57;101043.25;4990934;28;20037;-85
2022/06/26 10:24:06;;;;;;;1.83;1.70;;;;;;;23.79;56.40;101055.66;4975081;28;20019;-84
2022/06/26 10:26:32;;;;;;;2.50;1.90;;;;;;;23.90;55.69;101052.31;4974886;28;20496;-85
2022/06/26 10:29:06;;;;;;;3.70;1.80;;;;;;;24.05;55.82;101049.56;4991169;28;20366;-85
2022/06/26 10:31:43;;;;;;;2.73;2.57;;;;;;;24.16;56.33;101057.69;4974934;28;20496;-85
2022/06/26 10:34:20;;;;;;;2.63;2.42;;;;;;;24.23;57.63;101053.66;4991051;28;20400;-85
2022/06/26 10:36:59;;;;;;;2.80;2.60;;;;;;;24.28;56.53;101061.31;4974831;28;20038;-86
2022/06/26 10:39:36;;;;;;;2.95;2.75;;;;;;;24.35;55.98;101062.63;4975071;28;20026;-83
2022/06/26 10:42:52;;;;;;;2.92;2.58;;;;;;;24.48;56.54;101059.97;4992265;28;20029;-83
2022/06/26 10:45:31;;;;;;;;;;;;;;;24.59;56.20;101069.91;4904741;29;20024;-82
2022/06/26 10:47:58;;;;;;;2.53;2.42;;;;;;;24.67;56.25;101067.56;4975345;28;20287;-82
2022/06/26 10:50:28;;;;;;;3.20;3.00;;;;;;;24.70;54.76;101074.53;4976002;28;20568;-86
2022/06/26 10:52:59;;;;;;;3.00;2.80;;;;;;;24.69;55.32;101071.00;4985174;28;20031;-81
2022/06/26 10:55:24;;;;;;;4.60;2.67;;;;;;;24.67;55.62;101066.75;4959856;28;20045;-82
2022/06/26 10:57:50;;;;;;;3.42;3.20;;;;;;;24.71;55.27;101069.06;4976067;28;20113;-82
2022/06/26 11:00:16;;;;;;;3.17;2.83;;;;;;;24.80;56.28;101062.22;4959531;28;20069;-82
2022/06/26 11:02:44;;;;;;;3.20;3.00;;;;;;;24.89;56.37;101061.56;4959922;28;20027;-82
2022/06/26 11:05:10;;;;;;;3.10;2.88;;;;;;;24.92;57.50;101060.50;4959884;28;20030;-82
2022/06/26 11:07:47;;;;;;;3.33;2.88;;;;;;;24.96;57.07;101059.31;4975174;28;20361;-81
2022/06/26 11:10:15;;;;;;;4.10;3.80;;;;;;;24.97;56.00;101061.03;4960698;28;20390;-82
2022/06/26 11:12:46;;;;;;;3.90;3.60;;;;;;;24.99;55.88;101067.09;4960848;28;20086;-82
2022/06/26 11:15:32;;;;;;;4.82;4.53;;;;;;;25.00;56.66;101073.31;4959432;28;20029;-82
2022/06/26 11:18:05;;;;;;;4.97;4.65;;;;;;;24.96;57.89;101068.22;4959548;28;20027;-82
2022/06/26 11:20:53;;;;;;;3.97;3.77;;;;;;;24.86;57.70;101063.63;4959210;28;20480;-82
2022/06/26 11:23:26;;;;;;;4.00;3.70;;;;;;;24.71;58.89;101074.41;4959488;28;20121;-82
2022/06/26 11:26:01;;;;;;;4.03;3.72;;;;;;;24.59;58.59;101076.09;4975290;28;20030;-82
2022/06/26 11:28:40;;;;;;;3.83;3.53;;;;;;;24.53;59.21;101075.66;4958584;28;20093;-83
2022/06/26 11:31:08;;;;;;;4.15;3.75;;;;;;;24.54;60.75;101066.69;4957902;28;20037;-85